Map

Track Data

SID SEASON NUMBER BASIN SUBBASIN NAME ISO_TIME NATURE LAT LON WMO_WIND WMO_PRES WMO_AGENCY TRACK_TYPE DIST2LAND LANDFALL IFLAG USA_AGENCY USA_ATCF_ID USA_LAT USA_LON USA_RECORD USA_STATUS USA_WIND USA_PRES USA_SSHS USA_R34_NE USA_R34_SE USA_R34_SW USA_R34_NW USA_R50_NE USA_R50_SE USA_R50_SW USA_R50_NW USA_R64_NE USA_R64_SE USA_R64_SW USA_R64_NW USA_POCI USA_ROCI USA_RMW USA_EYE TOKYO_LAT TOKYO_LON TOKYO_GRADE TOKYO_WIND TOKYO_PRES TOKYO_R50_DIR TOKYO_R50_LONG TOKYO_R50_SHORT TOKYO_R30_DIR TOKYO_R30_LONG TOKYO_R30_SHORT TOKYO_LAND CMA_LAT CMA_LON CMA_CAT CMA_WIND CMA_PRES HKO_LAT HKO_LON HKO_CAT HKO_WIND HKO_PRES NEWDELHI_LAT NEWDELHI_LON NEWDELHI_GRADE NEWDELHI_WIND NEWDELHI_PRES NEWDELHI_CI NEWDELHI_DP NEWDELHI_POCI REUNION_LAT REUNION_LON REUNION_TYPE REUNION_WIND REUNION_PRES REUNION_TNUM REUNION_CI REUNION_RMW REUNION_R34_NE REUNION_R34_SE REUNION_R34_SW REUNION_R34_NW REUNION_R50_NE REUNION_R50_SE REUNION_R50_SW REUNION_R50_NW REUNION_R64_NE REUNION_R64_SE REUNION_R64_SW REUNION_R64_NW BOM_LAT BOM_LON BOM_TYPE BOM_WIND BOM_PRES BOM_TNUM BOM_CI BOM_RMW BOM_R34_NE BOM_R34_SE BOM_R34_SW BOM_R34_NW BOM_R50_NE BOM_R50_SE BOM_R50_SW BOM_R50_NW BOM_R64_NE BOM_R64_SE BOM_R64_SW BOM_R64_NW BOM_ROCI BOM_POCI BOM_EYE BOM_POS_METHOD BOM_PRES_METHOD NADI_LAT NADI_LON NADI_CAT NADI_WIND NADI_PRES WELLINGTON_LAT WELLINGTON_LON WELLINGTON_WIND WELLINGTON_PRES DS824_LAT DS824_LON DS824_STAGE DS824_WIND DS824_PRES TD9636_LAT TD9636_LON TD9636_STAGE TD9636_WIND TD9636_PRES TD9635_LAT TD9635_LON TD9635_WIND TD9635_PRES TD9635_ROCI NEUMANN_LAT NEUMANN_LON NEUMANN_CLASS NEUMANN_WIND NEUMANN_PRES MLC_LAT MLC_LON MLC_CLASS MLC_WIND MLC_PRES USA_GUST BOM_GUST BOM_GUST_PER REUNION_GUST REUNION_GUST_PER USA_SEAHGT USA_SEARAD_NE USA_SEARAD_SE USA_SEARAD_SW USA_SEARAD_NW STORM_SPEED STORM_DIR
1945230N17307 1945 47 NA NA NOT_NAMED 1945-08-17 18:00:00 TS 17.4000 -53.5000 35 hurdat_atl main 1103 1064 O_____________ hurdat_atl AL041945 17.4000 -53.5000 TS 35 0 14 284
1945230N17307 1945 47 NA NA NOT_NAMED 1945-08-17 21:00:00 TS 17.5630 -54.1922 main 1064 1022 P_____________ AL041945 17.5630 -54.1922 TS 40 0 14 283
1945230N17307 1945 47 NA NA NOT_NAMED 1945-08-18 00:00:00 TS 17.7000 -54.9000 45 hurdat_atl main 1022 985 O_____________ hurdat_atl AL041945 17.7000 -54.9000 TS 45 0 14 280
1945230N17307 1945 47 NA NA NOT_NAMED 1945-08-18 03:00:00 TS 17.7997 -55.6353 main 985 946 P_____________ AL041945 17.7997 -55.6353 TS 50 0 14 278
1945230N17307 1945 47 NA NA NOT_NAMED 1945-08-18 06:00:00 TS 17.9000 -56.4000 55 hurdat_atl main 946 898 O_____________ hurdat_atl AL041945 17.9000 -56.4000 TS 55 0 15 279
1945230N17307 1945 47 NA NA NOT_NAMED 1945-08-18 09:00:00 TS 18.0422 -57.1851 main 888 802 P_____________ AL041945 18.0422 -57.1851 TS 57 0 16 281
1945230N17307 1945 47 NA NA NOT_NAMED 1945-08-18 12:00:00 TS 18.2000 -58.0000 60 hurdat_atl main 802 717 O_____________ hurdat_atl AL041945 18.2000 -58.0000 TS 60 0 16 281
1945230N17307 1945 47 NA NA NOT_NAMED 1945-08-18 15:00:00 TS 18.3496 -58.8352 main 717 622 P_____________ AL041945 18.3496 -58.8352 TS 60 0 16 281
1945230N17307 1945 47 NA NA NOT_NAMED 1945-08-18 18:00:00 TS 18.5000 -59.7000 60 hurdat_atl main 622 538 O_____________ hurdat_atl AL041945 18.5000 -59.7000 TS 60 0 17 280
1945230N17307 1945 47 NA NA NOT_NAMED 1945-08-18 21:00:00 TS 18.6422 -60.5928 main 527 444 P_____________ AL041945 18.6422 -60.5928 TS 60 0 17 280
1945230N17307 1945 47 NA NA NOT_NAMED 1945-08-19 00:00:00 TS 18.8000 -61.5000 60 hurdat_atl main 434 343 O_____________ hurdat_atl AL041945 18.8000 -61.5000 TS 60 0 18 282
1945230N17307 1945 47 NA NA NOT_NAMED 1945-08-19 03:00:00 TS 18.9922 -62.4076 main 343 258 P_____________ AL041945 18.9922 -62.4076 TS 57 0 18 283
1945230N17307 1945 47 NA NA NOT_NAMED 1945-08-19 06:00:00 TS 19.2000 -63.3000 55 hurdat_atl main 258 193 O_____________ hurdat_atl AL041945 19.2000 -63.3000 TS 55 0 17 284
1945230N17307 1945 47 NA NA NOT_NAMED 1945-08-19 09:00:00 TS 19.3920 -64.1578 main 184 148 P_____________ AL041945 19.3920 -64.1578 TS 52 0 17 284
1945230N17307 1945 47 NA NA NOT_NAMED 1945-08-19 12:00:00 TS 19.6000 -65.0000 50 hurdat_atl main 148 144 O_____________ hurdat_atl AL041945 19.6000 -65.0000 TS 50 0 17 286
1945230N17307 1945 47 NA NA NOT_NAMED 1945-08-19 15:00:00 TS 19.8422 -65.8576 main 156 156 P_____________ AL041945 19.8422 -65.8576 TS 50 0 17 287
1945230N17307 1945 47 NA NA NOT_NAMED 1945-08-19 18:00:00 TS 20.1000 -66.7000 50 hurdat_atl main 190 190 O_____________ hurdat_atl AL041945 20.1000 -66.7000 TS 50 0 16 288
1945230N17307 1945 47 NA NA NOT_NAMED 1945-08-19 21:00:00 TS 20.3495 -67.5078 main 203 179 P_____________ AL041945 20.3495 -67.5078 TS 47 0 16 288
1945230N17307 1945 47 NA NA NOT_NAMED 1945-08-20 00:00:00 TS 20.6000 -68.3000 45 hurdat_atl main 179 168 O_____________ hurdat_atl AL041945 20.6000 -68.3000 TS 45 0 16 289
1945230N17307 1945 47 NA NA NOT_NAMED 1945-08-20 03:00:00 TS 20.8643 -69.0776 main 173 159 P_____________ AL041945 20.8643 -69.0776 TS 42 0 16 288
1945230N17307 1945 47 NA NA NOT_NAMED 1945-08-20 06:00:00 TS 21.1000 -69.9000 40 hurdat_atl main 162 154 O_____________ hurdat_atl AL041945 21.1000 -69.9000 TS 40 0 17 284
1945230N17307 1945 47 NA NA NOT_NAMED 1945-08-20 09:00:00 TS 21.2722 -70.8203 main 167 136 P_____________ AL041945 21.2722 -70.8203 TS 40 0 18 280
1945230N17307 1945 47 NA NA NOT_NAMED 1945-08-20 12:00:00 TS 21.4000 -71.8000 40 hurdat_atl main 126 39 O_____________ hurdat_atl AL041945 21.4000 -71.8000 TS 40 0 19 277
1945230N17307 1945 47 NA NA NOT_NAMED 1945-08-20 15:00:00 TS 21.5073 -72.8077 main 39 33 P_____________ AL041945 21.5073 -72.8077 TS 37 0 19 276
1945230N17307 1945 47 NA NA NOT_NAMED 1945-08-20 18:00:00 TS 21.6000 -73.8000 35 hurdat_atl main 56 56 O_____________ hurdat_atl AL041945 21.6000 -73.8000 TS 35 0 18 276
1945230N17307 1945 47 NA NA NOT_NAMED 1945-08-20 21:00:00 TS 21.6995 -74.7301 main 121 88 P_____________ AL041945 21.6995 -74.7301 TS 32 -1 17 277
1945230N17307 1945 47 NA NA NOT_NAMED 1945-08-21 00:00:00 TS 21.8000 -75.6000 30 hurdat_atl main 88 70 O_____________ hurdat_atl AL041945 21.8000 -75.6000 TD 30 -1 16 277
1945230N17307 1945 47 NA NA NOT_NAMED 1945-08-21 03:00:00 TS 21.9007 -76.4148 main 73 33 P_____________ AL041945 21.9007 -76.4148 TD 27 -1 15 278
1945230N17307 1945 47 NA NA NOT_NAMED 1945-08-21 06:00:00 TS 22.0000 -77.2000 25 hurdat_atl main 33 O_____________ hurdat_atl AL041945 22.0000 -77.2000 TD 25 -1 15 278

About IBTrACS Database

This database is a web-friendly format of International Best Track Archive for Climate Stewardship (IBTrACS), a global best track data archive curated by NOAA dating back to 1842.

Updated: 2021-12-01